createdAt,value
2019-04-10T00:00:31.835Z,0.80
2019-04-10T00:03:04.111Z,0.81
2019-04-10T00:05:36.183Z,0.87
2019-04-10T00:08:08.843Z,0.77
2019-04-10T00:10:41.747Z,0.85
2019-04-10T00:13:14.211Z,0.88
2019-04-10T00:15:46.451Z,0.91
2019-04-10T00:18:18.003Z,0.88
2019-04-10T00:20:49.423Z,0.84
2019-04-10T00:23:20.623Z,0.85
2019-04-10T00:25:53.043Z,0.86
2019-04-10T00:28:24.196Z,0.80
2019-04-10T00:30:56.185Z,0.77
2019-04-10T00:33:27.719Z,0.79
2019-04-10T00:35:59.879Z,0.68
2019-04-10T00:38:31.606Z,0.58
2019-04-10T00:41:03.815Z,0.58
2019-04-10T00:43:35.444Z,0.55
2019-04-10T00:46:06.662Z,0.56
2019-04-10T00:48:37.684Z,0.48
2019-04-10T00:51:08.915Z,0.33
2019-04-10T00:53:41.257Z,0.42
2019-04-10T00:56:12.930Z,0.45
2019-04-10T00:58:44.257Z,0.42
2019-04-10T01:01:16.422Z,0.33
2019-04-10T01:03:48.967Z,0.13
2019-04-10T01:06:20.692Z,0.01
2019-04-10T01:08:51.829Z,0.06
2019-04-10T01:11:25.214Z,0.07
2019-04-10T01:13:57.064Z,0.08
2019-04-10T01:16:28.239Z,0.07
2019-04-10T01:19:01.636Z,0.06
2019-04-10T01:21:32.945Z,0.01
2019-04-10T01:24:06.229Z,0.02
2019-04-10T01:26:39.149Z,-0.11
2019-04-10T01:29:11.305Z,-0.14
2019-04-10T01:31:43.430Z,-0.11
2019-04-10T01:34:15.145Z,-0.07
2019-04-10T01:36:46.532Z,-0.09
2019-04-10T01:39:20.086Z,-0.03
2019-04-10T01:41:52.180Z,-0.01
2019-04-10T01:44:24.634Z,-0.09
2019-04-10T01:46:55.638Z,-0.07
2019-04-10T01:49:27.364Z,-0.07
2019-04-10T01:51:59.591Z,-0.04
2019-04-10T01:54:31.232Z,-0.05
2019-04-10T01:57:02.534Z,0.01
2019-04-10T01:59:36.155Z,-0.05
2019-04-10T02:02:09.630Z,-0.17
2019-04-10T02:04:41.731Z,-0.20
2019-04-10T02:07:13.892Z,-0.17
2019-04-10T02:09:45.870Z,-0.17
2019-04-10T02:12:16.866Z,-0.15
2019-04-10T02:14:48.848Z,-0.15
2019-04-10T02:17:20.447Z,-0.13
2019-04-10T02:19:51.415Z,-0.19
2019-04-10T02:22:22.619Z,-0.25
2019-04-10T02:24:53.731Z,-0.30
2019-04-10T02:27:24.808Z,-0.32
2019-04-10T02:29:55.917Z,-0.31
2019-04-10T02:32:28.340Z,-0.34
2019-04-10T02:35:01.094Z,-0.32
2019-04-10T02:37:33.173Z,-0.36
2019-04-10T02:40:09.788Z,-0.46
2019-04-10T02:42:41.557Z,-0.51
2019-04-10T02:45:16.864Z,-0.46
2019-04-10T02:47:47.680Z,-0.42
2019-04-10T02:50:21.884Z,-0.40
2019-04-10T02:52:54.938Z,-0.41
2019-04-10T02:55:27.191Z,-0.50
2019-04-10T02:58:00.735Z,-0.48
2019-04-10T03:00:33.671Z,-0.55
2019-04-10T03:03:05.601Z,-0.61
2019-04-10T03:05:38.337Z,-0.65
2019-04-10T03:08:11.272Z,-0.77
2019-04-10T03:10:49.562Z,-0.79
2019-04-10T03:13:15.444Z,-0.76
2019-04-10T03:15:49.694Z,-0.79
2019-04-10T03:18:21.049Z,-0.84
2019-04-10T03:20:52.681Z,-0.83
2019-04-10T03:23:25.175Z,-0.81
2019-04-10T03:25:57.294Z,-0.84
2019-04-10T03:28:29.236Z,-0.79
2019-04-10T03:31:02.521Z,-0.81
2019-04-10T03:33:37.730Z,-0.79
2019-04-10T03:36:09.482Z,-0.73
2019-04-10T03:38:54.545Z,-0.72
2019-04-10T03:41:15.794Z,-0.72
2019-04-10T03:43:46.908Z,-0.73
2019-04-10T03:46:19.374Z,-0.72
2019-04-10T03:48:51.512Z,-0.67
2019-04-10T03:51:22.861Z,-0.68
2019-04-10T03:53:54.276Z,-0.80
2019-04-10T03:56:26.104Z,-0.86
2019-04-10T03:58:57.853Z,-0.91
2019-04-10T04:01:31.901Z,-0.91
2019-04-10T04:04:04.971Z,-0.91
2019-04-10T04:06:36.657Z,-0.91
2019-04-10T04:09:11.654Z,-0.99
2019-04-10T04:11:41.990Z,-0.94
2019-04-10T04:14:14.437Z,-1.01
2019-04-10T04:16:47.073Z,-1.08
2019-04-10T04:19:19.130Z,-1.04
2019-04-10T04:21:50.660Z,-1.05
2019-04-10T04:24:24.981Z,-1.03
2019-04-10T04:26:57.400Z,-1.06
2019-04-10T04:29:30.305Z,-1.02
2019-04-10T04:32:01.454Z,-0.98
2019-04-10T04:34:32.818Z,-0.96
2019-04-10T04:37:04.463Z,-1.01
2019-04-10T04:39:37.298Z,-1.01
2019-04-10T04:42:09.255Z,-0.98
2019-04-10T04:44:40.711Z,-1.04
2019-04-10T04:47:13.310Z,-1.06
2019-04-10T04:49:46.737Z,-1.08
2019-04-10T04:52:18.337Z,-1.06
2019-04-10T04:54:49.827Z,-1.09
2019-04-10T04:57:22.449Z,-1.02
2019-04-10T04:59:57.709Z,-0.90
2019-04-10T05:02:29.001Z,-0.79
2019-04-10T05:05:00.432Z,-0.76
2019-04-10T05:07:33.335Z,-0.73
2019-04-10T05:10:07.195Z,-0.63
2019-04-10T05:12:38.223Z,-0.51
2019-04-10T05:15:10.920Z,-0.40
2019-04-10T05:17:42.286Z,-0.38
2019-04-10T05:20:14.771Z,-0.31
2019-04-10T05:22:46.214Z,-0.30
2019-04-10T05:25:18.794Z,-0.25
2019-04-10T05:27:51.098Z,-0.17
2019-04-10T05:30:22.453Z,-0.11
2019-04-10T05:32:55.619Z,-0.08
2019-04-10T05:35:27.776Z,0.02
2019-04-10T05:38:00.377Z,0.06
2019-04-10T05:40:33.279Z,0.14
2019-04-10T05:43:05.907Z,0.28
2019-04-10T05:45:37.997Z,0.32
2019-04-10T05:48:12.127Z,0.42
2019-04-10T05:50:53.135Z,0.54
2019-04-10T05:53:16.967Z,0.65
2019-04-10T05:55:49.347Z,0.74
2019-04-10T05:58:21.760Z,0.81
2019-04-10T06:00:53.423Z,0.90
2019-04-10T06:03:24.829Z,0.99
2019-04-10T06:05:59.596Z,1.04
2019-04-10T06:08:29.771Z,1.18
2019-04-10T06:11:01.314Z,1.32
2019-04-10T06:13:32.646Z,1.43
2019-04-10T06:16:05.653Z,1.31
2019-04-10T06:18:37.882Z,1.58
2019-04-10T06:21:10.412Z,1.67
2019-04-10T06:23:43.443Z,1.82
2019-04-10T06:26:16.575Z,1.90
2019-04-10T06:28:48.536Z,1.97
2019-04-10T06:31:20.748Z,2.16
2019-04-10T06:33:52.820Z,2.28
2019-04-10T06:36:25.082Z,2.30
2019-04-10T06:38:57.016Z,2.44
2019-04-10T06:41:28.436Z,2.53
2019-04-10T06:43:59.822Z,2.56
2019-04-10T06:46:31.171Z,2.59
2019-04-10T06:49:03.114Z,2.66
2019-04-10T06:51:35.510Z,2.70
2019-04-10T06:54:11.036Z,2.86
2019-04-10T06:56:41.052Z,2.97
2019-04-10T06:59:12.613Z,3.11
2019-04-10T07:01:49.573Z,3.16
2019-04-10T07:04:18.143Z,3.35
2019-04-10T07:06:58.097Z,3.27
2019-04-10T07:09:26.221Z,3.31
2019-04-10T07:12:00.194Z,3.40
2019-04-10T07:14:32.412Z,3.57
2019-04-10T07:17:06.988Z,3.72
2019-04-10T07:19:37.540Z,3.95
2019-04-10T07:22:12.458Z,4.15
2019-04-10T07:24:42.553Z,4.11
2019-04-10T07:27:14.245Z,4.18
2019-04-10T07:29:50.647Z,4.14
2019-04-10T07:32:19.441Z,4.25
2019-04-10T07:34:50.875Z,4.35
2019-04-10T07:37:24.055Z,4.48
2019-04-10T07:39:55.271Z,4.51
2019-04-10T07:42:33.853Z,4.59
2019-04-10T07:44:59.860Z,4.70
2019-04-10T07:47:31.625Z,4.76
2019-04-10T07:50:04.782Z,4.73
2019-04-10T07:52:37.171Z,4.87
2019-04-10T07:55:08.859Z,4.95
2019-04-10T07:57:40.866Z,4.98
2019-04-10T08:00:16.025Z,5.11
2019-04-10T08:02:49.154Z,5.17
2019-04-10T08:05:22.955Z,5.19
2019-04-10T08:07:56.462Z,5.41
2019-04-10T08:10:30.681Z,5.48
2019-04-10T08:13:04.651Z,5.61
2019-04-10T08:15:37.801Z,5.60
2019-04-10T08:18:10.028Z,5.42
2019-04-10T08:20:42.478Z,5.47
2019-04-10T08:23:14.861Z,5.73
2019-04-10T08:25:47.479Z,5.85
2019-04-10T08:28:19.841Z,5.99
2019-04-10T08:30:52.525Z,6.01
2019-04-10T08:33:23.533Z,6.06
2019-04-10T08:35:55.099Z,5.88
2019-04-10T08:38:27.949Z,6.01
2019-04-10T08:41:06.054Z,6.29
2019-04-10T08:43:38.274Z,6.48
2019-04-10T08:46:09.380Z,6.58
2019-04-10T08:48:45.534Z,6.50
2019-04-10T08:51:17.148Z,6.40
2019-04-10T08:53:48.863Z,6.49
2019-04-10T08:56:20.474Z,6.50
2019-04-10T08:58:52.747Z,6.78
2019-04-10T09:01:25.151Z,6.85
2019-04-10T09:04:01.405Z,6.82
2019-04-10T09:06:41.801Z,6.89
2019-04-10T09:09:13.948Z,6.59
2019-04-10T09:11:51.619Z,6.66
2019-04-10T09:14:33.001Z,6.48
2019-04-10T09:17:09.022Z,6.61
2019-04-10T09:19:40.715Z,6.60
2019-04-10T09:22:12.067Z,6.64
2019-04-10T09:24:44.616Z,6.66
2019-04-10T09:27:19.219Z,6.79
2019-04-10T09:29:57.451Z,6.79
2019-04-10T09:32:32.595Z,7.00
2019-04-10T09:35:08.711Z,7.28
2019-04-10T09:37:42.127Z,7.57
2019-04-10T09:40:16.507Z,7.72
2019-04-10T09:42:52.850Z,7.60
2019-04-10T09:45:30.767Z,7.40
2019-04-10T09:48:04.195Z,7.77
2019-04-10T09:50:39.649Z,7.84
2019-04-10T09:53:12.802Z,7.90
2019-04-10T09:55:47.108Z,7.76
2019-04-10T09:58:21.797Z,7.49
2019-04-10T10:00:58.537Z,7.50
2019-04-10T10:03:34.877Z,7.64
2019-04-10T10:06:07.028Z,7.66
2019-04-10T10:08:47.903Z,7.75
2019-04-10T10:11:24.344Z,7.85
2019-04-10T10:13:56.410Z,7.96
2019-04-10T10:16:32.381Z,8.19
2019-04-10T10:19:05.840Z,7.96
2019-04-10T10:21:38.837Z,7.92
2019-04-10T10:24:10.918Z,7.86
2019-04-10T10:26:46.515Z,8.03
2019-04-10T10:29:17.656Z,7.87
2019-04-10T10:31:52.187Z,7.89
2019-04-10T10:34:22.775Z,7.90
2019-04-10T10:36:53.628Z,8.18
2019-04-10T10:39:31.742Z,8.42
2019-04-10T10:42:03.907Z,8.63
2019-04-10T10:44:36.290Z,8.85
2019-04-10T10:47:08.388Z,8.54
2019-04-10T10:49:40.535Z,8.53
2019-04-10T10:52:21.913Z,8.55
2019-04-10T10:54:56.943Z,8.66
2019-04-10T10:57:35.860Z,8.71
2019-04-10T11:00:13.073Z,8.81
2019-04-10T11:02:45.556Z,8.66
2019-04-10T11:05:17.117Z,8.79
2019-04-10T11:07:48.979Z,8.35
2019-04-10T11:10:25.445Z,8.44
2019-04-10T11:12:55.351Z,8.76
2019-04-10T11:15:28.994Z,8.64
2019-04-10T11:18:02.056Z,8.74
2019-04-10T11:20:36.355Z,8.61
2019-04-10T11:23:12.065Z,8.30
2019-04-10T11:25:44.327Z,8.43
2019-04-10T11:28:16.310Z,8.47
2019-04-10T11:30:48.163Z,8.51
2019-04-10T11:33:20.661Z,8.75
2019-04-10T11:35:53.428Z,8.81
2019-04-10T11:38:26.175Z,9.07
2019-04-10T11:41:00.065Z,9.27
2019-04-10T11:43:33.457Z,9.03
2019-04-10T11:46:04.693Z,9.10
2019-04-10T11:48:36.620Z,9.07
2019-04-10T11:51:10.106Z,8.95
2019-04-10T11:53:44.513Z,8.79
2019-04-10T11:56:13.743Z,8.92
2019-04-10T11:58:53.789Z,9.04
2019-04-10T12:01:21.149Z,9.11
2019-04-10T12:03:54.372Z,9.16
2019-04-10T12:06:25.338Z,9.21
2019-04-10T12:09:26.382Z,9.06
2019-04-10T12:11:31.757Z,8.99
2019-04-10T12:14:03.044Z,8.99
2019-04-10T12:16:37.519Z,9.05
2019-04-10T12:19:09.679Z,9.27
2019-04-10T12:21:42.116Z,9.12
2019-04-10T12:24:14.097Z,9.03
2019-04-10T12:26:46.000Z,8.94
2019-04-10T12:29:18.368Z,9.11
2019-04-10T12:32:00.792Z,9.25
2019-04-10T12:34:36.187Z,8.98
2019-04-10T12:37:07.714Z,9.03
2019-04-10T12:39:39.296Z,9.20
2019-04-10T12:42:10.864Z,9.18
2019-04-10T12:44:42.782Z,9.05
2019-04-10T12:47:15.448Z,9.11
2019-04-10T12:49:48.090Z,9.25
2019-04-10T12:52:20.630Z,9.18
2019-04-10T12:54:53.231Z,9.14
2019-04-10T12:57:24.866Z,9.07
2019-04-10T13:00:01.506Z,8.98
2019-04-10T13:02:28.698Z,8.99
2019-04-10T13:05:00.856Z,9.10
2019-04-10T13:07:33.567Z,9.15
2019-04-10T13:10:08.727Z,9.11
2019-04-10T13:12:39.980Z,9.19
2019-04-10T13:15:13.113Z,9.11
2019-04-10T13:17:44.900Z,8.97
2019-04-10T13:20:17.664Z,9.10
2019-04-10T13:22:50.567Z,9.16
2019-04-10T13:25:22.033Z,9.12
2019-04-10T13:27:53.434Z,8.67
2019-04-10T13:30:25.114Z,8.69
2019-04-10T13:32:58.333Z,8.81
2019-04-10T13:35:30.302Z,8.99
2019-04-10T13:38:03.205Z,9.13
2019-04-10T13:40:35.275Z,8.77
2019-04-10T13:43:07.273Z,8.74
2019-04-10T13:45:39.412Z,8.87
2019-04-10T13:48:13.004Z,8.93
2019-04-10T13:50:44.162Z,8.72
2019-04-10T13:53:15.527Z,8.75
2019-04-10T13:55:47.072Z,8.67
2019-04-10T13:58:21.164Z,8.53
2019-04-10T14:00:53.592Z,8.39
2019-04-10T14:03:30.418Z,8.32
2019-04-10T14:06:07.418Z,8.51
2019-04-10T14:08:58.609Z,8.70
2019-04-10T14:11:13.178Z,8.83
2019-04-10T14:13:44.850Z,8.72
2019-04-10T14:16:16.960Z,8.84
2019-04-10T14:18:52.898Z,8.91
2019-04-10T14:21:24.873Z,8.79
2019-04-10T14:23:57.676Z,8.79
2019-04-10T14:26:46.734Z,8.74
2019-04-10T14:29:15.015Z,8.63
2019-04-10T14:31:48.940Z,8.66
2019-04-10T14:34:21.312Z,8.79
2019-04-10T14:36:52.816Z,8.86
2019-04-10T14:39:25.413Z,8.90
2019-04-10T14:41:56.614Z,9.05
2019-04-10T14:44:28.523Z,9.16
2019-04-10T14:47:00.238Z,9.12
2019-04-10T14:49:31.988Z,9.29
2019-04-10T14:52:03.464Z,9.32
2019-04-10T14:54:35.691Z,8.93
2019-04-10T14:57:07.445Z,8.79
2019-04-10T14:59:40.008Z,8.78
2019-04-10T15:02:30.726Z,8.89
2019-04-10T15:05:08.158Z,8.97
2019-04-10T15:07:39.938Z,8.69
2019-04-10T15:10:12.016Z,8.39
2019-04-10T15:12:44.054Z,8.41
2019-04-10T15:15:41.016Z,8.31
2019-04-10T15:18:45.909Z,8.11
2019-04-10T15:21:47.579Z,8.22
2019-04-10T15:24:55.879Z,8.33
2019-04-10T15:35:10.462Z,8.34
2019-04-10T15:37:49.269Z,8.22
2019-04-10T15:40:25.798Z,8.35
2019-04-10T15:43:03.655Z,8.49
2019-04-10T15:45:35.920Z,8.75
2019-04-10T15:48:08.396Z,8.94
2019-04-10T15:50:39.649Z,8.94
2019-04-10T15:53:11.742Z,8.79
2019-04-10T15:55:43.680Z,8.44
2019-04-10T15:58:17.302Z,8.38
2019-04-10T16:00:50.236Z,8.31
2019-04-10T16:03:21.871Z,8.35
2019-04-10T16:05:53.569Z,8.44
2019-04-10T16:08:28.136Z,8.33
2019-04-10T16:11:02.096Z,8.30
2019-04-10T16:13:36.644Z,8.29
2019-04-10T16:16:10.072Z,8.10
2019-04-10T16:18:41.873Z,7.77
2019-04-10T16:21:13.040Z,7.65
2019-04-10T16:23:46.146Z,7.43
2019-04-10T16:26:18.799Z,7.38
2019-04-10T16:28:51.587Z,7.49
2019-04-10T16:31:23.542Z,7.48
2019-04-10T16:33:55.366Z,7.50
2019-04-10T16:36:27.927Z,7.45
2019-04-10T16:38:59.513Z,7.47
2019-04-10T16:41:31.223Z,7.46
2019-04-10T16:44:02.807Z,7.39
2019-04-10T16:46:34.525Z,7.31
2019-04-10T16:49:06.566Z,7.10
2019-04-10T16:51:48.275Z,7.10
2019-04-10T16:54:22.280Z,7.06
2019-04-10T16:56:54.148Z,6.89
2019-04-10T16:59:29.942Z,6.81
2019-04-10T17:02:01.836Z,6.69
2019-04-10T17:04:36.057Z,6.63
2019-04-10T17:07:08.568Z,6.67
2019-04-10T17:09:45.478Z,6.65
2019-04-10T17:12:17.784Z,6.52
2019-04-10T17:14:53.385Z,6.43
2019-04-10T17:17:28.895Z,6.42
2019-04-10T17:20:08.569Z,6.33
2019-04-10T17:22:45.337Z,6.26
2019-04-10T17:25:14.223Z,6.14
2019-04-10T17:27:45.929Z,6.11
2019-04-10T17:30:19.713Z,6.07
2019-04-10T17:32:52.168Z,5.96
2019-04-10T17:35:24.616Z,5.87
2019-04-10T17:37:56.666Z,5.88
2019-04-10T17:40:36.700Z,5.84
2019-04-10T17:43:05.177Z,5.79
2019-04-10T17:45:38.425Z,5.75
2019-04-10T17:48:11.654Z,5.64
2019-04-10T17:50:43.720Z,5.57
2019-04-10T17:53:16.567Z,5.53
2019-04-10T17:55:48.014Z,5.47
2019-04-10T17:58:19.177Z,5.37
2019-04-10T18:00:52.138Z,5.35
2019-04-10T18:03:23.523Z,5.30
2019-04-10T18:05:55.174Z,5.24
2019-04-10T18:08:27.110Z,5.22
2019-04-10T18:11:00.269Z,5.19
2019-04-10T18:13:31.532Z,5.21
2019-04-10T18:16:02.752Z,5.17
2019-04-10T18:18:33.590Z,5.19
2019-04-10T18:21:04.965Z,5.21
2019-04-10T18:23:36.029Z,5.15
2019-04-10T18:26:08.685Z,5.21
2019-04-10T18:28:39.484Z,5.18
2019-04-10T18:31:10.469Z,5.15
2019-04-10T18:33:41.375Z,5.10
2019-04-10T18:36:13.325Z,5.09
2019-04-10T18:38:44.493Z,5.05
2019-04-10T18:41:15.779Z,5.08
2019-04-10T18:43:46.749Z,5.03
2019-04-10T18:46:19.491Z,4.97
2019-04-10T18:48:51.285Z,4.92
2019-04-10T18:51:23.488Z,4.91
2019-04-10T18:53:54.829Z,4.85
2019-04-10T18:56:25.482Z,4.77
2019-04-10T18:58:58.415Z,4.79
2019-04-10T19:01:31.394Z,4.74
2019-04-10T19:04:05.822Z,4.69
2019-04-10T19:06:38.593Z,4.60
2019-04-10T19:09:18.490Z,4.52
2019-04-10T19:11:44.204Z,4.45
2019-04-10T19:14:18.445Z,4.36
2019-04-10T19:16:49.862Z,4.31
2019-04-10T19:19:20.937Z,4.24
2019-04-10T19:21:53.778Z,4.19
2019-04-10T19:24:25.965Z,4.17
2019-04-10T19:26:57.889Z,4.10
2019-04-10T19:29:30.283Z,4.07
2019-04-10T19:32:03.748Z,3.93
2019-04-10T19:34:35.197Z,3.82
2019-04-10T19:37:06.368Z,3.73
2019-04-10T19:39:38.290Z,3.66
2019-04-10T19:42:11.193Z,3.58
2019-04-10T19:44:47.632Z,3.51
2019-04-10T19:47:22.082Z,3.47
2019-04-10T19:49:55.105Z,3.40
2019-04-10T19:52:27.080Z,3.28
2019-04-10T19:54:58.162Z,3.18
2019-04-10T19:57:35.608Z,3.16
2019-04-10T20:00:12.721Z,3.11
2019-04-10T20:02:43.684Z,2.99
2019-04-10T20:05:18.078Z,2.97
2019-04-10T20:07:51.402Z,2.92
2019-04-10T20:10:23.449Z,2.82
2019-04-10T20:12:59.251Z,2.79
2019-04-10T20:15:31.632Z,2.72
2019-04-10T20:18:04.428Z,2.64
2019-04-10T20:20:39.518Z,2.63
2019-04-10T20:23:14.191Z,2.60
2019-04-10T20:25:48.389Z,2.56
2019-04-10T20:28:21.210Z,2.44
2019-04-10T20:31:04.820Z,2.44
2019-04-10T20:33:38.780Z,2.38
2019-04-10T20:36:13.026Z,2.40
2019-04-10T20:38:45.574Z,2.30
2019-04-10T20:41:18.235Z,2.24
2019-04-10T20:43:51.153Z,2.19
2019-04-10T20:46:24.246Z,2.08
2019-04-10T20:48:55.382Z,2.09
2019-04-10T20:51:31.101Z,2.01
2019-04-10T20:54:02.782Z,2.01
2019-04-10T20:56:35.541Z,1.92
2019-04-10T20:59:09.978Z,1.84
2019-04-10T21:01:45.350Z,1.78
2019-04-10T21:04:19.312Z,1.69
2019-04-10T21:06:56.503Z,1.64
2019-04-10T21:09:29.771Z,1.68
2019-04-10T21:12:09.568Z,1.62
2019-04-10T21:14:36.471Z,1.51
2019-04-10T21:17:08.792Z,1.50
2019-04-10T21:19:40.965Z,1.47
2019-04-10T21:22:13.818Z,1.44
2019-04-10T21:24:46.099Z,1.37
2019-04-10T21:27:18.589Z,1.37
2019-04-10T21:29:52.704Z,1.39
2019-04-10T21:32:26.161Z,1.33
2019-04-10T21:35:02.081Z,1.31
2019-04-10T21:37:34.672Z,1.31
2019-04-10T21:40:10.306Z,1.34
2019-04-10T21:42:44.129Z,1.25
2019-04-10T21:45:16.514Z,1.25
2019-04-10T21:47:48.257Z,1.38
2019-04-10T21:50:21.495Z,1.36
2019-04-10T21:52:59.643Z,1.20
2019-04-10T21:55:32.135Z,0.99
2019-04-10T21:58:06.087Z,1.02
2019-04-10T22:00:38.829Z,1.05
2019-04-10T22:03:11.828Z,1.02
2019-04-10T22:05:44.731Z,0.91
2019-04-10T22:08:17.340Z,0.87
2019-04-10T22:10:50.347Z,0.84
2019-04-10T22:13:21.966Z,0.87
2019-04-10T22:15:53.433Z,0.91
2019-04-10T22:18:27.479Z,0.88
2019-04-10T22:21:00.425Z,0.90
2019-04-10T22:23:34.315Z,0.77
2019-04-10T22:26:07.884Z,0.76
2019-04-10T22:28:39.846Z,0.77
2019-04-10T22:31:11.646Z,0.74
2019-04-10T22:33:43.300Z,0.73
2019-04-10T22:36:15.047Z,0.74
2019-04-10T22:38:46.221Z,0.66
2019-04-10T22:41:25.337Z,0.76
2019-04-10T22:43:50.425Z,0.78
2019-04-10T22:46:25.817Z,0.71
2019-04-10T22:48:57.784Z,0.71
2019-04-10T22:51:29.521Z,0.76
2019-04-10T22:54:00.241Z,0.82
2019-04-10T22:56:31.919Z,0.76
2019-04-10T22:59:03.983Z,0.72
2019-04-10T23:01:39.789Z,0.61
2019-04-10T23:04:12.234Z,0.56
2019-04-10T23:06:44.999Z,0.56
2019-04-10T23:09:16.473Z,0.41
2019-04-10T23:11:47.748Z,0.50
2019-04-10T23:14:18.942Z,0.52
2019-04-10T23:16:50.491Z,0.42
2019-04-10T23:19:22.399Z,0.57
2019-04-10T23:21:54.633Z,0.58
2019-04-10T23:24:27.622Z,0.57
2019-04-10T23:27:01.745Z,0.38
2019-04-10T23:29:32.733Z,0.28
2019-04-10T23:32:07.294Z,0.28
2019-04-10T23:34:38.955Z,0.23
2019-04-10T23:37:10.905Z,0.25
2019-04-10T23:39:46.167Z,0.25
2019-04-10T23:42:17.563Z,0.29
2019-04-10T23:44:49.241Z,0.29
2019-04-10T23:47:22.107Z,0.30
2019-04-10T23:49:54.075Z,0.36
2019-04-10T23:52:25.543Z,0.35
2019-04-10T23:54:57.592Z,0.34
2019-04-10T23:57:29.505Z,0.20
